sensor_id;sensor_type;location;lat;lon;timestamp;temperature;humidity
4962;DHT22;2496;52.468;13.342;2023-11-18T00:00:16;5.40;99.90
4962;DHT22;2496;52.468;13.342;2023-11-18T00:02:43;5.40;99.90
4962;DHT22;2496;52.468;13.342;2023-11-18T00:05:11;5.40;99.90
4962;DHT22;2496;52.468;13.342;2023-11-18T00:07:39;5.40;99.90
4962;DHT22;2496;52.468;13.342;2023-11-18T00:10:07;5.40;99.90
4962;DHT22;2496;52.468;13.342;2023-11-18T00:12:34;5.40;99.90
4962;DHT22;2496;52.468;13.342;2023-11-18T00:15:01;5.40;99.90
4962;DHT22;2496;52.468;13.342;2023-11-18T00:17:29;5.30;99.90
4962;DHT22;2496;52.468;13.342;2023-11-18T00:19:57;5.20;99.90
4962;DHT22;2496;52.468;13.342;2023-11-18T00:22:26;5.20;99.90
4962;DHT22;2496;52.468;13.342;2023-11-18T00:24:53;5.10;99.90
4962;DHT22;2496;52.468;13.342;2023-11-18T00:27:22;5.20;99.90
4962;DHT22;2496;52.468;13.342;2023-11-18T00:29:50;5.20;99.90
4962;DHT22;2496;52.468;13.342;2023-11-18T00:32:18;5.20;99.90
4962;DHT22;2496;52.468;13.342;2023-11-18T00:34:46;5.20;99.90
4962;DHT22;2496;52.468;13.342;2023-11-18T00:37:13;5.20;99.90
4962;DHT22;2496;52.468;13.342;2023-11-18T00:39:42;5.30;99.90
4962;DHT22;2496;52.468;13.342;2023-11-18T00:42:09;5.30;99.90
4962;DHT22;2496;52.468;13.342;2023-11-18T00:44:36;5.30;99.90
4962;DHT22;2496;52.468;13.342;2023-11-18T00:47:03;5.30;99.90
4962;DHT22;2496;52.468;13.342;2023-11-18T00:49:30;5.40;99.90
4962;DHT22;2496;52.468;13.342;2023-11-18T00:51:59;5.40;99.90
4962;DHT22;2496;52.468;13.342;2023-11-18T00:54:26;5.40;99.90
4962;DHT22;2496;52.468;13.342;2023-11-18T00:56:54;5.40;99.90
4962;DHT22;2496;52.468;13.342;2023-11-18T00:59:21;5.30;99.90
4962;DHT22;2496;52.468;13.342;2023-11-18T01:01:48;5.30;99.90
4962;DHT22;2496;52.468;13.342;2023-11-18T01:04:15;5.30;99.90
4962;DHT22;2496;52.468;13.342;2023-11-18T01:06:42;5.30;99.90
4962;DHT22;2496;52.468;13.342;2023-11-18T01:09:09;5.30;99.90
4962;DHT22;2496;52.468;13.342;2023-11-18T01:11:37;5.30;99.90
4962;DHT22;2496;52.468;13.342;2023-11-18T01:14:06;5.40;99.90
4962;DHT22;2496;52.468;13.342;2023-11-18T01:16:33;5.40;99.90
4962;DHT22;2496;52.468;13.342;2023-11-18T01:19:00;5.40;99.90
4962;DHT22;2496;52.468;13.342;2023-11-18T01:21:27;5.40;99.90
4962;DHT22;2496;52.468;13.342;2023-11-18T01:23:55;5.40;99.90
4962;DHT22;2496;52.468;13.342;2023-11-18T01:26:21;5.40;99.90
4962;DHT22;2496;52.468;13.342;2023-11-18T01:28:48;5.40;99.90
4962;DHT22;2496;52.468;13.342;2023-11-18T01:31:17;5.40;99.90
4962;DHT22;2496;52.468;13.342;2023-11-18T01:33:44;5.40;99.90
4962;DHT22;2496;52.468;13.342;2023-11-18T01:36:12;5.40;99.90
4962;DHT22;2496;52.468;13.342;2023-11-18T01:38:39;5.40;99.90
4962;DHT22;2496;52.468;13.342;2023-11-18T01:41:07;5.30;99.90
4962;DHT22;2496;52.468;13.342;2023-11-18T01:43:34;5.30;99.90
4962;DHT22;2496;52.468;13.342;2023-11-18T01:46:03;5.40;99.90
4962;DHT22;2496;52.468;13.342;2023-11-18T01:48:34;5.40;99.90
4962;DHT22;2496;52.468;13.342;2023-11-18T01:51:04;5.40;99.90
4962;DHT22;2496;52.468;13.342;2023-11-18T01:53:34;5.30;99.90
4962;DHT22;2496;52.468;13.342;2023-11-18T01:56:03;5.30;99.90
4962;DHT22;2496;52.468;13.342;2023-11-18T01:58:32;5.30;99.90
4962;DHT22;2496;52.468;13.342;2023-11-18T02:01:01;5.30;99.90
4962;DHT22;2496;52.468;13.342;2023-11-18T02:03:29;5.30;99.90
4962;DHT22;2496;52.468;13.342;2023-11-18T02:05:57;5.30;99.90
4962;DHT22;2496;52.468;13.342;2023-11-18T02:08:25;5.20;99.90
4962;DHT22;2496;52.468;13.342;2023-11-18T02:10:57;5.20;99.90
4962;DHT22;2496;52.468;13.342;2023-11-18T02:13:31;5.20;99.90
4962;DHT22;2496;52.468;13.342;2023-11-18T02:16:04;5.20;99.90
4962;DHT22;2496;52.468;13.342;2023-11-18T02:18:33;5.30;99.90
4962;DHT22;2496;52.468;13.342;2023-11-18T02:21:04;5.30;99.90
4962;DHT22;2496;52.468;13.342;2023-11-18T02:23:34;5.30;99.90
4962;DHT22;2496;52.468;13.342;2023-11-18T02:26:04;5.30;99.90
4962;DHT22;2496;52.468;13.342;2023-11-18T02:28:31;5.30;99.90
4962;DHT22;2496;52.468;13.342;2023-11-18T02:31:05;5.30;99.90
4962;DHT22;2496;52.468;13.342;2023-11-18T02:33:36;5.20;99.90
4962;DHT22;2496;52.468;13.342;2023-11-18T02:36:10;5.20;99.90
4962;DHT22;2496;52.468;13.342;2023-11-18T02:38:46;5.20;99.90
4962;DHT22;2496;52.468;13.342;2023-11-18T02:41:17;5.20;99.90
4962;DHT22;2496;52.468;13.342;2023-11-18T02:43:46;5.20;99.90
4962;DHT22;2496;52.468;13.342;2023-11-18T02:46:14;5.10;99.90
4962;DHT22;2496;52.468;13.342;2023-11-18T02:48:41;5.10;99.90
4962;DHT22;2496;52.468;13.342;2023-11-18T02:51:08;5.20;99.90
4962;DHT22;2496;52.468;13.342;2023-11-18T02:53:37;5.20;99.90
4962;DHT22;2496;52.468;13.342;2023-11-18T02:56:07;5.20;99.90
4962;DHT22;2496;52.468;13.342;2023-11-18T02:58:36;5.20;99.90
4962;DHT22;2496;52.468;13.342;2023-11-18T03:01:04;5.20;99.90
4962;DHT22;2496;52.468;13.342;2023-11-18T03:03:32;5.20;99.90
4962;DHT22;2496;52.468;13.342;2023-11-18T03:05:59;5.20;99.90
4962;DHT22;2496;52.468;13.342;2023-11-18T03:08:26;5.20;99.90
4962;DHT22;2496;52.468;13.342;2023-11-18T03:10:55;5.20;99.90
4962;DHT22;2496;52.468;13.342;2023-11-18T03:13:23;5.20;99.90
4962;DHT22;2496;52.468;13.342;2023-11-18T03:15:52;5.20;99.90
4962;DHT22;2496;52.468;13.342;2023-11-18T03:18:19;5.20;99.90
4962;DHT22;2496;52.468;13.342;2023-11-18T03:20:46;5.10;99.90
4962;DHT22;2496;52.468;13.342;2023-11-18T03:23:15;5.10;99.90
4962;DHT22;2496;52.468;13.342;2023-11-18T03:25:41;5.10;99.90
4962;DHT22;2496;52.468;13.342;2023-11-18T03:28:09;5.10;99.90
4962;DHT22;2496;52.468;13.342;2023-11-18T03:30:36;5.10;99.90
4962;DHT22;2496;52.468;13.342;2023-11-18T03:33:06;5.10;99.90
4962;DHT22;2496;52.468;13.342;2023-11-18T03:35:36;5.10;99.90
4962;DHT22;2496;52.468;13.342;2023-11-18T03:38:04;5.10;99.90
4962;DHT22;2496;52.468;13.342;2023-11-18T03:40:31;5.10;99.90
4962;DHT22;2496;52.468;13.342;2023-11-18T03:43:00;5.10;99.90
4962;DHT22;2496;52.468;13.342;2023-11-18T03:45:28;5.20;99.90
4962;DHT22;2496;52.468;13.342;2023-11-18T03:47:56;5.20;99.90
4962;DHT22;2496;52.468;13.342;2023-11-18T03:50:24;5.30;99.90
4962;DHT22;2496;52.468;13.342;2023-11-18T03:52:51;5.30;99.90
4962;DHT22;2496;52.468;13.342;2023-11-18T03:55:18;5.30;99.90
4962;DHT22;2496;52.468;13.342;2023-11-18T03:57:45;5.20;99.90
4962;DHT22;2496;52.468;13.342;2023-11-18T04:00:15;5.20;99.90
4962;DHT22;2496;52.468;13.342;2023-11-18T04:02:43;5.20;99.90
4962;DHT22;2496;52.468;13.342;2023-11-18T04:05:11;5.30;99.90
4962;DHT22;2496;52.468;13.342;2023-11-18T04:07:40;5.30;99.90
4962;DHT22;2496;52.468;13.342;2023-11-18T04:10:08;5.30;99.90
4962;DHT22;2496;52.468;13.342;2023-11-18T04:12:36;5.30;99.90
4962;DHT22;2496;52.468;13.342;2023-11-18T04:15:03;5.30;99.90
4962;DHT22;2496;52.468;13.342;2023-11-18T04:17:31;5.30;99.90
4962;DHT22;2496;52.468;13.342;2023-11-18T04:20:00;5.30;99.90
4962;DHT22;2496;52.468;13.342;2023-11-18T04:22:29;5.30;99.90
4962;DHT22;2496;52.468;13.342;2023-11-18T04:24:58;5.30;99.90
4962;DHT22;2496;52.468;13.342;2023-11-18T04:27:25;5.20;99.90
4962;DHT22;2496;52.468;13.342;2023-11-18T04:29:51;5.20;99.90
4962;DHT22;2496;52.468;13.342;2023-11-18T04:32:18;5.20;99.90
4962;DHT22;2496;52.468;13.342;2023-11-18T04:34:45;5.20;99.90
4962;DHT22;2496;52.468;13.342;2023-11-18T04:37:14;5.20;99.90
4962;DHT22;2496;52.468;13.342;2023-11-18T04:39:41;5.10;99.90
4962;DHT22;2496;52.468;13.342;2023-11-18T04:42:10;5.00;99.90
4962;DHT22;2496;52.468;13.342;2023-11-18T04:44:37;4.90;99.90
4962;DHT22;2496;52.468;13.342;2023-11-18T04:47:05;4.90;99.90
4962;DHT22;2496;52.468;13.342;2023-11-18T04:49:32;4.90;99.90
4962;DHT22;2496;52.468;13.342;2023-11-18T04:51:59;4.90;99.90
4962;DHT22;2496;52.468;13.342;2023-11-18T04:54:26;4.90;99.90
4962;DHT22;2496;52.468;13.342;2023-11-18T04:56:53;4.90;99.90
4962;DHT22;2496;52.468;13.342;2023-11-18T04:59:22;4.90;99.90
4962;DHT22;2496;52.468;13.342;2023-11-18T05:01:48;4.90;99.90
4962;DHT22;2496;52.468;13.342;2023-11-18T05:04:18;5.00;99.90
4962;DHT22;2496;52.468;13.342;2023-11-18T05:06:45;5.00;99.90
4962;DHT22;2496;52.468;13.342;2023-11-18T05:09:12;5.10;99.90
4962;DHT22;2496;52.468;13.342;2023-11-18T05:11:41;5.10;99.90
4962;DHT22;2496;52.468;13.342;2023-11-18T05:14:08;5.00;99.90
4962;DHT22;2496;52.468;13.342;2023-11-18T05:16:38;5.00;99.90
4962;DHT22;2496;52.468;13.342;2023-11-18T05:19:06;5.00;99.90
4962;DHT22;2496;52.468;13.342;2023-11-18T05:21:34;5.00;99.90
4962;DHT22;2496;52.468;13.342;2023-11-18T05:24:01;5.10;99.90
4962;DHT22;2496;52.468;13.342;2023-11-18T05:26:28;5.10;99.90
4962;DHT22;2496;52.468;13.342;2023-11-18T05:28:56;5.10;99.90
4962;DHT22;2496;52.468;13.342;2023-11-18T05:31:22;5.10;99.90
4962;DHT22;2496;52.468;13.342;2023-11-18T05:33:51;5.10;99.90
4962;DHT22;2496;52.468;13.342;2023-11-18T05:36:21;5.00;99.90
4962;DHT22;2496;52.468;13.342;2023-11-18T05:38:53;5.00;99.90
4962;DHT22;2496;52.468;13.342;2023-11-18T05:41:20;5.00;99.90
4962;DHT22;2496;52.468;13.342;2023-11-18T05:43:53;5.10;99.90
4962;DHT22;2496;52.468;13.342;2023-11-18T05:46:23;5.10;99.90
4962;DHT22;2496;52.468;13.342;2023-11-18T05:48:53;5.10;99.90
4962;DHT22;2496;52.468;13.342;2023-11-18T05:51:22;5.10;99.90
4962;DHT22;2496;52.468;13.342;2023-11-18T05:53:49;5.10;99.90
4962;DHT22;2496;52.468;13.342;2023-11-18T05:56:18;5.10;99.90
4962;DHT22;2496;52.468;13.342;2023-11-18T05:58:45;5.10;99.90
4962;DHT22;2496;52.468;13.342;2023-11-18T06:01:13;5.10;99.90
4962;DHT22;2496;52.468;13.342;2023-11-18T06:03:41;5.00;99.90
4962;DHT22;2496;52.468;13.342;2023-11-18T06:06:11;5.00;99.90
4962;DHT22;2496;52.468;13.342;2023-11-18T06:08:39;5.00;99.90
4962;DHT22;2496;52.468;13.342;2023-11-18T06:11:07;5.00;99.90
4962;DHT22;2496;52.468;13.342;2023-11-18T06:13:40;5.00;99.90
4962;DHT22;2496;52.468;13.342;2023-11-18T06:16:09;5.00;99.90
4962;DHT22;2496;52.468;13.342;2023-11-18T06:18:40;5.10;99.90
4962;DHT22;2496;52.468;13.342;2023-11-18T06:21:14;5.00;99.90
4962;DHT22;2496;52.468;13.342;2023-11-18T06:23:42;5.00;99.90
4962;DHT22;2496;52.468;13.342;2023-11-18T06:26:09;5.10;99.90
4962;DHT22;2496;52.468;13.342;2023-11-18T06:28:38;5.10;99.90
4962;DHT22;2496;52.468;13.342;2023-11-18T06:31:05;5.10;99.90
4962;DHT22;2496;52.468;13.342;2023-11-18T06:33:37;5.10;99.90
4962;DHT22;2496;52.468;13.342;2023-11-18T06:36:08;5.20;99.90
4962;DHT22;2496;52.468;13.342;2023-11-18T06:38:38;5.20;99.90
4962;DHT22;2496;52.468;13.342;2023-11-18T06:41:06;5.20;99.90
4962;DHT22;2496;52.468;13.342;2023-11-18T06:43:35;5.20;99.90
4962;DHT22;2496;52.468;13.342;2023-11-18T06:46:18;5.20;99.90
4962;DHT22;2496;52.468;13.342;2023-11-18T06:48:46;5.20;99.90
4962;DHT22;2496;52.468;13.342;2023-11-18T06:51:14;5.30;99.90
4962;DHT22;2496;52.468;13.342;2023-11-18T06:53:43;5.30;99.90
4962;DHT22;2496;52.468;13.342;2023-11-18T06:56:10;5.30;99.90
4962;DHT22;2496;52.468;13.342;2023-11-18T06:58:38;5.30;99.90
4962;DHT22;2496;52.468;13.342;2023-11-18T07:01:05;5.30;99.90
4962;DHT22;2496;52.468;13.342;2023-11-18T07:03:32;5.20;99.90
4962;DHT22;2496;52.468;13.342;2023-11-18T07:05:59;5.20;99.90
4962;DHT22;2496;52.468;13.342;2023-11-18T07:08:26;5.20;99.90
4962;DHT22;2496;52.468;13.342;2023-11-18T07:10:54;5.20;99.90
4962;DHT22;2496;52.468;13.342;2023-11-18T07:13:22;5.30;99.90
4962;DHT22;2496;52.468;13.342;2023-11-18T07:15:49;5.30;99.90
4962;DHT22;2496;52.468;13.342;2023-11-18T07:18:17;5.40;99.90
4962;DHT22;2496;52.468;13.342;2023-11-18T07:20:44;5.40;99.90
4962;DHT22;2496;52.468;13.342;2023-11-18T07:23:11;5.40;99.90
4962;DHT22;2496;52.468;13.342;2023-11-18T07:25:37;5.40;99.90
4962;DHT22;2496;52.468;13.342;2023-11-18T07:28:06;5.40;99.90
4962;DHT22;2496;52.468;13.342;2023-11-18T07:30:34;5.50;99.90
4962;DHT22;2496;52.468;13.342;2023-11-18T07:33:03;5.50;99.90
4962;DHT22;2496;52.468;13.342;2023-11-18T07:35:30;5.50;99.90
4962;DHT22;2496;52.468;13.342;2023-11-18T07:37:58;5.50;99.90
4962;DHT22;2496;52.468;13.342;2023-11-18T07:40:25;5.60;99.90
4962;DHT22;2496;52.468;13.342;2023-11-18T07:42:54;5.60;99.90
4962;DHT22;2496;52.468;13.342;2023-11-18T07:45:23;5.60;99.90
4962;DHT22;2496;52.468;13.342;2023-11-18T07:47:50;5.70;99.90
4962;DHT22;2496;52.468;13.342;2023-11-18T07:50:17;5.70;99.90
4962;DHT22;2496;52.468;13.342;2023-11-18T07:52:45;5.60;99.90
4962;DHT22;2496;52.468;13.342;2023-11-18T07:55:13;5.60;99.90
4962;DHT22;2496;52.468;13.342;2023-11-18T07:57:40;5.50;99.90
4962;DHT22;2496;52.468;13.342;2023-11-18T08:00:08;5.50;99.90
4962;DHT22;2496;52.468;13.342;2023-11-18T08:02:37;5.40;99.90
4962;DHT22;2496;52.468;13.342;2023-11-18T08:05:04;5.40;99.90
4962;DHT22;2496;52.468;13.342;2023-11-18T08:07:33;5.40;99.90
4962;DHT22;2496;52.468;13.342;2023-11-18T08:10:01;5.40;99.90
4962;DHT22;2496;52.468;13.342;2023-11-18T08:12:30;5.50;99.90
4962;DHT22;2496;52.468;13.342;2023-11-18T08:14:57;5.50;99.90
4962;DHT22;2496;52.468;13.342;2023-11-18T08:17:25;5.50;99.90
4962;DHT22;2496;52.468;13.342;2023-11-18T08:19:53;5.40;99.90
4962;DHT22;2496;52.468;13.342;2023-11-18T08:22:21;5.30;99.90
4962;DHT22;2496;52.468;13.342;2023-11-18T08:24:49;5.20;99.90
4962;DHT22;2496;52.468;13.342;2023-11-18T08:27:15;5.20;99.90
4962;DHT22;2496;52.468;13.342;2023-11-18T08:29:43;5.20;99.90
4962;DHT22;2496;52.468;13.342;2023-11-18T08:32:11;5.20;99.90
4962;DHT22;2496;52.468;13.342;2023-11-18T08:34:38;5.10;99.90
4962;DHT22;2496;52.468;13.342;2023-11-18T08:37:07;5.00;99.90
4962;DHT22;2496;52.468;13.342;2023-11-18T08:39:35;5.00;99.90
4962;DHT22;2496;52.468;13.342;2023-11-18T08:42:02;5.00;99.90
4962;DHT22;2496;52.468;13.342;2023-11-18T08:44:29;4.90;99.90
4962;DHT22;2496;52.468;13.342;2023-11-18T08:46:58;4.90;99.90
4962;DHT22;2496;52.468;13.342;2023-11-18T08:49:25;4.90;99.90
4962;DHT22;2496;52.468;13.342;2023-11-18T08:51:55;4.90;99.90
4962;DHT22;2496;52.468;13.342;2023-11-18T08:54:25;5.00;99.90
4962;DHT22;2496;52.468;13.342;2023-11-18T08:57:03;5.00;99.90
4962;DHT22;2496;52.468;13.342;2023-11-18T08:59:41;5.00;99.90
4962;DHT22;2496;52.468;13.342;2023-11-18T09:02:10;5.00;99.90
4962;DHT22;2496;52.468;13.342;2023-11-18T09:04:41;5.10;99.90
4962;DHT22;2496;52.468;13.342;2023-11-18T09:07:09;5.20;99.90
4962;DHT22;2496;52.468;13.342;2023-11-18T09:09:38;5.30;99.90
4962;DHT22;2496;52.468;13.342;2023-11-18T09:12:06;5.40;99.90
4962;DHT22;2496;52.468;13.342;2023-11-18T09:14:34;5.40;99.90
4962;DHT22;2496;52.468;13.342;2023-11-18T09:17:01;5.50;99.90
4962;DHT22;2496;52.468;13.342;2023-11-18T09:19:28;5.50;99.90
4962;DHT22;2496;52.468;13.342;2023-11-18T09:21:55;5.60;99.90
4962;DHT22;2496;52.468;13.342;2023-11-18T09:24:22;5.60;99.90
4962;DHT22;2496;52.468;13.342;2023-11-18T09:26:51;5.70;99.90
4962;DHT22;2496;52.468;13.342;2023-11-18T09:29:20;5.70;99.90
4962;DHT22;2496;52.468;13.342;2023-11-18T09:31:50;5.60;99.90
4962;DHT22;2496;52.468;13.342;2023-11-18T09:34:19;5.70;99.90
4962;DHT22;2496;52.468;13.342;2023-11-18T09:36:54;5.60;99.90
4962;DHT22;2496;52.468;13.342;2023-11-18T09:39:21;5.60;99.90
4962;DHT22;2496;52.468;13.342;2023-11-18T09:42:05;5.60;99.90
4962;DHT22;2496;52.468;13.342;2023-11-18T09:44:36;5.60;99.90
4962;DHT22;2496;52.468;13.342;2023-11-18T09:47:07;5.70;99.90
4962;DHT22;2496;52.468;13.342;2023-11-18T09:49:40;5.70;99.90
4962;DHT22;2496;52.468;13.342;2023-11-18T09:52:16;5.70;99.90
4962;DHT22;2496;52.468;13.342;2023-11-18T09:54:50;5.70;99.90
4962;DHT22;2496;52.468;13.342;2023-11-18T09:57:26;5.70;99.90
4962;DHT22;2496;52.468;13.342;2023-11-18T10:00:00;5.70;99.90
4962;DHT22;2496;52.468;13.342;2023-11-18T10:02:45;5.80;99.90
4962;DHT22;2496;52.468;13.342;2023-11-18T10:05:13;5.80;99.90
4962;DHT22;2496;52.468;13.342;2023-11-18T10:07:42;5.90;99.90
4962;DHT22;2496;52.468;13.342;2023-11-18T10:10:10;5.90;99.90
4962;DHT22;2496;52.468;13.342;2023-11-18T10:12:42;5.90;99.90
4962;DHT22;2496;52.468;13.342;2023-11-18T10:15:12;5.90;99.90
4962;DHT22;2496;52.468;13.342;2023-11-18T10:17:42;6.00;99.90
4962;DHT22;2496;52.468;13.342;2023-11-18T10:20:21;6.00;99.90
4962;DHT22;2496;52.468;13.342;2023-11-18T10:23:05;6.00;99.90
4962;DHT22;2496;52.468;13.342;2023-11-18T10:25:35;6.00;99.90
4962;DHT22;2496;52.468;13.342;2023-11-18T10:28:07;6.10;99.90
4962;DHT22;2496;52.468;13.342;2023-11-18T10:30:43;6.10;99.90
4962;DHT22;2496;52.468;13.342;2023-11-18T10:33:14;6.10;99.90
4962;DHT22;2496;52.468;13.342;2023-11-18T10:35:49;6.00;99.90
4962;DHT22;2496;52.468;13.342;2023-11-18T10:38:18;6.10;99.90
4962;DHT22;2496;52.468;13.342;2023-11-18T10:40:45;6.00;99.90
4962;DHT22;2496;52.468;13.342;2023-11-18T10:43:14;6.00;99.90
4962;DHT22;2496;52.468;13.342;2023-11-18T10:45:42;6.00;99.90
4962;DHT22;2496;52.468;13.342;2023-11-18T10:48:12;6.00;99.90
4962;DHT22;2496;52.468;13.342;2023-11-18T10:50:42;6.10;99.90
4962;DHT22;2496;52.468;13.342;2023-11-18T10:53:11;6.00;99.90
4962;DHT22;2496;52.468;13.342;2023-11-18T10:55:41;6.00;99.90
4962;DHT22;2496;52.468;13.342;2023-11-18T10:58:08;6.00;99.90
4962;DHT22;2496;52.468;13.342;2023-11-18T11:00:50;6.00;99.90
4962;DHT22;2496;52.468;13.342;2023-11-18T11:03:19;6.00;99.90
4962;DHT22;2496;52.468;13.342;2023-11-18T11:05:49;6.00;99.90
4962;DHT22;2496;52.468;13.342;2023-11-18T11:08:18;6.00;99.90
4962;DHT22;2496;52.468;13.342;2023-11-18T11:10:46;5.90;99.90
4962;DHT22;2496;52.468;13.342;2023-11-18T11:13:14;5.90;99.90
4962;DHT22;2496;52.468;13.342;2023-11-18T11:15:44;5.80;99.90
4962;DHT22;2496;52.468;13.342;2023-11-18T11:18:13;5.80;99.90
4962;DHT22;2496;52.468;13.342;2023-11-18T11:20:52;5.80;99.90
4962;DHT22;2496;52.468;13.342;2023-11-18T11:23:32;5.90;99.90
4962;DHT22;2496;52.468;13.342;2023-11-18T11:26:16;5.90;99.90
4962;DHT22;2496;52.468;13.342;2023-11-18T11:28:55;5.90;99.90
4962;DHT22;2496;52.468;13.342;2023-11-18T11:31:31;5.90;99.90
4962;DHT22;2496;52.468;13.342;2023-11-18T11:34:02;5.90;99.90
4962;DHT22;2496;52.468;13.342;2023-11-18T11:36:37;5.90;99.90
4962;DHT22;2496;52.468;13.342;2023-11-18T11:39:07;5.90;99.90
4962;DHT22;2496;52.468;13.342;2023-11-18T11:41:44;5.90;99.90
4962;DHT22;2496;52.468;13.342;2023-11-18T11:44:13;6.00;99.90
4962;DHT22;2496;52.468;13.342;2023-11-18T11:46:40;6.00;99.90
4962;DHT22;2496;52.468;13.342;2023-11-18T11:49:11;6.00;99.90
4962;DHT22;2496;52.468;13.342;2023-11-18T11:51:47;6.10;99.90
4962;DHT22;2496;52.468;13.342;2023-11-18T11:54:20;6.20;99.90
4962;DHT22;2496;52.468;13.342;2023-11-18T11:56:48;6.30;99.90
4962;DHT22;2496;52.468;13.342;2023-11-18T11:59:55;6.40;99.90
4962;DHT22;2496;52.468;13.342;2023-11-18T12:02:23;6.50;99.90
4962;DHT22;2496;52.468;13.342;2023-11-18T12:04:56;6.60;99.90
4962;DHT22;2496;52.468;13.342;2023-11-18T12:07:25;6.60;99.90
4962;DHT22;2496;52.468;13.342;2023-11-18T12:09:57;6.50;99.90
4962;DHT22;2496;52.468;13.342;2023-11-18T12:12:25;6.50;99.90
4962;DHT22;2496;52.468;13.342;2023-11-18T12:14:54;6.50;99.90
4962;DHT22;2496;52.468;13.342;2023-11-18T12:17:23;6.60;99.90
4962;DHT22;2496;52.468;13.342;2023-11-18T12:20:44;6.60;99.90
4962;DHT22;2496;52.468;13.342;2023-11-18T12:23:20;6.70;99.90
4962;DHT22;2496;52.468;13.342;2023-11-18T12:25:50;6.70;99.90
4962;DHT22;2496;52.468;13.342;2023-11-18T12:28:21;6.80;99.90
4962;DHT22;2496;52.468;13.342;2023-11-18T12:30:53;6.90;99.90
4962;DHT22;2496;52.468;13.342;2023-11-18T12:33:23;6.90;99.90
4962;DHT22;2496;52.468;13.342;2023-11-18T12:36:31;7.00;99.90
4962;DHT22;2496;52.468;13.342;2023-11-18T12:39:38;7.00;99.90
4962;DHT22;2496;52.468;13.342;2023-11-18T12:42:09;7.00;99.90
4962;DHT22;2496;52.468;13.342;2023-11-18T12:44:59;7.00;99.90
4962;DHT22;2496;52.468;13.342;2023-11-18T12:47:37;6.90;99.90
4962;DHT22;2496;52.468;13.342;2023-11-18T12:50:09;6.80;99.90
4962;DHT22;2496;52.468;13.342;2023-11-18T12:52:44;6.70;99.90
4962;DHT22;2496;52.468;13.342;2023-11-18T12:55:13;6.70;99.90
4962;DHT22;2496;52.468;13.342;2023-11-18T12:57:46;6.70;99.90
4962;DHT22;2496;52.468;13.342;2023-11-18T13:00:14;6.60;99.90
4962;DHT22;2496;52.468;13.342;2023-11-18T13:02:52;6.50;99.90
4962;DHT22;2496;52.468;13.342;2023-11-18T13:05:20;6.50;99.90
4962;DHT22;2496;52.468;13.342;2023-11-18T13:07:48;6.50;99.90
4962;DHT22;2496;52.468;13.342;2023-11-18T13:10:15;6.40;99.90
4962;DHT22;2496;52.468;13.342;2023-11-18T13:12:42;6.30;99.90
4962;DHT22;2496;52.468;13.342;2023-11-18T13:15:10;6.30;99.90
4962;DHT22;2496;52.468;13.342;2023-11-18T13:17:38;6.20;99.90
4962;DHT22;2496;52.468;13.342;2023-11-18T13:20:12;6.20;99.90
4962;DHT22;2496;52.468;13.342;2023-11-18T13:22:39;6.10;99.90
4962;DHT22;2496;52.468;13.342;2023-11-18T13:25:08;6.00;99.90
4962;DHT22;2496;52.468;13.342;2023-11-18T13:27:35;6.00;99.90
4962;DHT22;2496;52.468;13.342;2023-11-18T13:30:05;6.00;99.90
4962;DHT22;2496;52.468;13.342;2023-11-18T13:32:40;6.00;99.90
4962;DHT22;2496;52.468;13.342;2023-11-18T13:35:08;6.00;99.90
4962;DHT22;2496;52.468;13.342;2023-11-18T13:37:35;6.00;99.90
4962;DHT22;2496;52.468;13.342;2023-11-18T13:40:01;6.00;99.90
4962;DHT22;2496;52.468;13.342;2023-11-18T13:42:34;6.00;99.90
4962;DHT22;2496;52.468;13.342;2023-11-18T13:45:05;6.00;99.90
4962;DHT22;2496;52.468;13.342;2023-11-18T13:47:37;6.00;99.90
4962;DHT22;2496;52.468;13.342;2023-11-18T13:50:06;5.90;99.90
4962;DHT22;2496;52.468;13.342;2023-11-18T13:52:34;5.80;99.90
4962;DHT22;2496;52.468;13.342;2023-11-18T13:55:01;5.80;99.90
4962;DHT22;2496;52.468;13.342;2023-11-18T13:57:32;5.70;99.90
4962;DHT22;2496;52.468;13.342;2023-11-18T14:00:00;5.70;99.90
4962;DHT22;2496;52.468;13.342;2023-11-18T14:02:27;5.70;99.90
4962;DHT22;2496;52.468;13.342;2023-11-18T14:04:55;5.70;99.90
4962;DHT22;2496;52.468;13.342;2023-11-18T14:07:23;5.60;99.90
4962;DHT22;2496;52.468;13.342;2023-11-18T14:09:50;5.60;99.90
4962;DHT22;2496;52.468;13.342;2023-11-18T14:12:22;5.60;99.90
4962;DHT22;2496;52.468;13.342;2023-11-18T14:14:54;5.60;99.90
4962;DHT22;2496;52.468;13.342;2023-11-18T14:17:21;5.60;99.90
4962;DHT22;2496;52.468;13.342;2023-11-18T14:19:48;5.60;99.90
4962;DHT22;2496;52.468;13.342;2023-11-18T14:22:15;5.60;99.90
4962;DHT22;2496;52.468;13.342;2023-11-18T14:24:42;5.60;99.90
4962;DHT22;2496;52.468;13.342;2023-11-18T14:27:09;5.50;99.90
4962;DHT22;2496;52.468;13.342;2023-11-18T14:29:36;5.50;99.90
4962;DHT22;2496;52.468;13.342;2023-11-18T14:32:05;5.50;99.90
4962;DHT22;2496;52.468;13.342;2023-11-18T14:34:33;5.50;99.90
4962;DHT22;2496;52.468;13.342;2023-11-18T14:37:00;5.50;99.90
4962;DHT22;2496;52.468;13.342;2023-11-18T14:39:27;5.60;99.90
4962;DHT22;2496;52.468;13.342;2023-11-18T14:41:55;5.60;99.90
4962;DHT22;2496;52.468;13.342;2023-11-18T14:44:22;5.60;99.90
4962;DHT22;2496;52.468;13.342;2023-11-18T14:46:49;5.60;99.90
4962;DHT22;2496;52.468;13.342;2023-11-18T14:49:18;5.60;99.90
4962;DHT22;2496;52.468;13.342;2023-11-18T14:51:45;5.50;99.90
4962;DHT22;2496;52.468;13.342;2023-11-18T14:54:12;5.50;99.90
4962;DHT22;2496;52.468;13.342;2023-11-18T14:56:39;5.50;99.90
4962;DHT22;2496;52.468;13.342;2023-11-18T14:59:06;5.40;99.90
4962;DHT22;2496;52.468;13.342;2023-11-18T15:01:33;5.40;99.90
4962;DHT22;2496;52.468;13.342;2023-11-18T15:04:00;5.40;99.90
4962;DHT22;2496;52.468;13.342;2023-11-18T15:06:32;5.40;99.90
4962;DHT22;2496;52.468;13.342;2023-11-18T15:09:00;5.40;99.90
4962;DHT22;2496;52.468;13.342;2023-11-18T15:11:29;5.50;99.90
4962;DHT22;2496;52.468;13.342;2023-11-18T15:13:59;5.50;99.90
4962;DHT22;2496;52.468;13.342;2023-11-18T15:16:26;5.50;99.90
4962;DHT22;2496;52.468;13.342;2023-11-18T15:18:53;5.60;99.90
4962;DHT22;2496;52.468;13.342;2023-11-18T15:21:22;5.60;99.90
4962;DHT22;2496;52.468;13.342;2023-11-18T15:23:50;5.60;99.90
4962;DHT22;2496;52.468;13.342;2023-11-18T15:26:17;5.50;99.90
4962;DHT22;2496;52.468;13.342;2023-11-18T15:28:44;5.60;99.90
4962;DHT22;2496;52.468;13.342;2023-11-18T15:31:11;5.60;99.90
4962;DHT22;2496;52.468;13.342;2023-11-18T15:33:40;5.50;99.90
4962;DHT22;2496;52.468;13.342;2023-11-18T15:36:11;5.50;99.90
4962;DHT22;2496;52.468;13.342;2023-11-18T15:38:38;5.60;99.90
4962;DHT22;2496;52.468;13.342;2023-11-18T15:41:07;5.50;99.90
4962;DHT22;2496;52.468;13.342;2023-11-18T15:43:36;5.50;99.90
4962;DHT22;2496;52.468;13.342;2023-11-18T15:46:04;5.50;99.90
4962;DHT22;2496;52.468;13.342;2023-11-18T15:48:32;5.50;99.90
4962;DHT22;2496;52.468;13.342;2023-11-18T15:51:00;5.50;99.90
4962;DHT22;2496;52.468;13.342;2023-11-18T15:53:28;5.50;99.90
4962;DHT22;2496;52.468;13.342;2023-11-18T15:55:55;5.50;99.90
4962;DHT22;2496;52.468;13.342;2023-11-18T15:58:24;5.50;99.90
4962;DHT22;2496;52.468;13.342;2023-11-18T16:00:54;5.50;99.90
4962;DHT22;2496;52.468;13.342;2023-11-18T16:03:21;5.60;99.90
4962;DHT22;2496;52.468;13.342;2023-11-18T16:05:48;5.60;99.90
4962;DHT22;2496;52.468;13.342;2023-11-18T16:08:15;5.60;99.90
4962;DHT22;2496;52.468;13.342;2023-11-18T16:10:42;5.50;99.90
4962;DHT22;2496;52.468;13.342;2023-11-18T16:13:10;5.50;99.90
4962;DHT22;2496;52.468;13.342;2023-11-18T16:15:39;5.50;99.90